sensor_id;sensor_type;location;lat;lon;timestamp;P1;durP1;ratioP1;P2;durP2;ratioP2
83272;SDS011;73177;51.584;5.188;2024-01-16T00:02:23;9.40;;;4.07;;
83272;SDS011;73177;51.584;5.188;2024-01-16T00:04:49;10.43;;;4.37;;
83272;SDS011;73177;51.584;5.188;2024-01-16T00:07:14;20.50;;;4.70;;
83272;SDS011;73177;51.584;5.188;2024-01-16T00:09:39;10.80;;;3.70;;
83272;SDS011;73177;51.584;5.188;2024-01-16T00:12:04;6.33;;;4.07;;
83272;SDS011;73177;51.584;5.188;2024-01-16T00:14:30;10.50;;;4.03;;
83272;SDS011;73177;51.584;5.188;2024-01-16T00:16:55;8.93;;;3.87;;
83272;SDS011;73177;51.584;5.188;2024-01-16T00:19:20;12.43;;;3.57;;
83272;SDS011;73177;51.584;5.188;2024-01-16T00:21:45;13.47;;;3.17;;
83272;SDS011;73177;51.584;5.188;2024-01-16T00:24:11;6.95;;;3.25;;
83272;SDS011;73177;51.584;5.188;2024-01-16T00:26:36;11.98;;;3.40;;
83272;SDS011;73177;51.584;5.188;2024-01-16T00:29:02;6.43;;;2.77;;
83272;SDS011;73177;51.584;5.188;2024-01-16T00:31:27;4.83;;;2.47;;
83272;SDS011;73177;51.584;5.188;2024-01-16T00:33:52;10.23;;;3.30;;
83272;SDS011;73177;51.584;5.188;2024-01-16T00:36:17;6.67;;;3.27;;
83272;SDS011;73177;51.584;5.188;2024-01-16T00:38:43;8.60;;;2.00;;
83272;SDS011;73177;51.584;5.188;2024-01-16T00:41:08;9.38;;;2.88;;
83272;SDS011;73177;51.584;5.188;2024-01-16T00:43:34;11.93;;;3.38;;
83272;SDS011;73177;51.584;5.188;2024-01-16T00:46:00;6.82;;;2.72;;
83272;SDS011;73177;51.584;5.188;2024-01-16T00:48:25;12.80;;;3.17;;
83272;SDS011;73177;51.584;5.188;2024-01-16T00:50:51;6.47;;;2.70;;
83272;SDS011;73177;51.584;5.188;2024-01-16T00:53:16;9.02;;;3.25;;
83272;SDS011;73177;51.584;5.188;2024-01-16T00:55:41;8.40;;;3.05;;
83272;SDS011;73177;51.584;5.188;2024-01-16T00:58:07;8.48;;;3.40;;
83272;SDS011;73177;51.584;5.188;2024-01-16T01:00:32;13.07;;;2.80;;
83272;SDS011;73177;51.584;5.188;2024-01-16T01:02:58;2.78;;;2.13;;
83272;SDS011;73177;51.584;5.188;2024-01-16T01:05:24;6.55;;;2.65;;
83272;SDS011;73177;51.584;5.188;2024-01-16T01:07:53;9.95;;;2.92;;
83272;SDS011;73177;51.584;5.188;2024-01-16T01:10:18;3.75;;;2.05;;
83272;SDS011;73177;51.584;5.188;2024-01-16T01:12:43;9.33;;;2.63;;
83272;SDS011;73177;51.584;5.188;2024-01-16T01:15:09;3.30;;;1.70;;
83272;SDS011;73177;51.584;5.188;2024-01-16T01:17:35;9.63;;;2.45;;
83272;SDS011;73177;51.584;5.188;2024-01-16T01:20:01;6.83;;;2.67;;
83272;SDS011;73177;51.584;5.188;2024-01-16T01:22:26;10.32;;;3.85;;
83272;SDS011;73177;51.584;5.188;2024-01-16T01:24:51;9.70;;;3.30;;
83272;SDS011;73177;51.584;5.188;2024-01-16T01:27:16;7.30;;;2.93;;
83272;SDS011;73177;51.584;5.188;2024-01-16T01:29:41;6.53;;;2.80;;
83272;SDS011;73177;51.584;5.188;2024-01-16T01:32:07;7.13;;;2.90;;
83272;SDS011;73177;51.584;5.188;2024-01-16T01:34:32;5.72;;;3.00;;
83272;SDS011;73177;51.584;5.188;2024-01-16T01:36:57;3.77;;;2.70;;
83272;SDS011;73177;51.584;5.188;2024-01-16T01:39:23;6.50;;;3.33;;
83272;SDS011;73177;51.584;5.188;2024-01-16T01:41:48;6.67;;;2.87;;
83272;SDS011;73177;51.584;5.188;2024-01-16T01:44:13;9.10;;;2.87;;
83272;SDS011;73177;51.584;5.188;2024-01-16T01:46:41;9.13;;;3.03;;
83272;SDS011;73177;51.584;5.188;2024-01-16T01:49:06;8.32;;;2.60;;
83272;SDS011;73177;51.584;5.188;2024-01-16T01:51:31;5.80;;;2.40;;
83272;SDS011;73177;51.584;5.188;2024-01-16T01:56:24;7.95;;;2.38;;
83272;SDS011;73177;51.584;5.188;2024-01-16T01:58:49;5.30;;;1.42;;
83272;SDS011;73177;51.584;5.188;2024-01-16T02:01:17;8.57;;;1.92;;
83272;SDS011;73177;51.584;5.188;2024-01-16T02:03:43;5.10;;;2.70;;
83272;SDS011;73177;51.584;5.188;2024-01-16T02:06:09;4.97;;;2.55;;
83272;SDS011;73177;51.584;5.188;2024-01-16T02:08:35;4.80;;;2.75;;
83272;SDS011;73177;51.584;5.188;2024-01-16T02:11:00;9.10;;;2.10;;
83272;SDS011;73177;51.584;5.188;2024-01-16T02:13:25;8.47;;;2.00;;
83272;SDS011;73177;51.584;5.188;2024-01-16T02:15:50;7.93;;;2.83;;
83272;SDS011;73177;51.584;5.188;2024-01-16T02:18:16;5.87;;;2.10;;
83272;SDS011;73177;51.584;5.188;2024-01-16T02:20:42;7.90;;;2.53;;
83272;SDS011;73177;51.584;5.188;2024-01-16T02:23:07;7.68;;;3.58;;
83272;SDS011;73177;51.584;5.188;2024-01-16T02:25:34;7.70;;;3.25;;
83272;SDS011;73177;51.584;5.188;2024-01-16T02:28:01;4.83;;;2.10;;
83272;SDS011;73177;51.584;5.188;2024-01-16T02:32:51;3.90;;;2.92;;
83272;SDS011;73177;51.584;5.188;2024-01-16T02:35:16;10.43;;;2.87;;
83272;SDS011;73177;51.584;5.188;2024-01-16T02:37:43;5.75;;;2.90;;
83272;SDS011;73177;51.584;5.188;2024-01-16T02:40:09;9.02;;;2.47;;
83272;SDS011;73177;51.584;5.188;2024-01-16T02:42:34;9.93;;;3.03;;
83272;SDS011;73177;51.584;5.188;2024-01-16T02:44:59;4.33;;;2.30;;
83272;SDS011;73177;51.584;5.188;2024-01-16T02:47:25;14.10;;;2.63;;
83272;SDS011;73177;51.584;5.188;2024-01-16T02:49:50;7.23;;;2.70;;
83272;SDS011;73177;51.584;5.188;2024-01-16T02:52:15;5.83;;;2.77;;
83272;SDS011;73177;51.584;5.188;2024-01-16T02:54:41;7.72;;;2.25;;
83272;SDS011;73177;51.584;5.188;2024-01-16T02:57:06;9.55;;;2.38;;
83272;SDS011;73177;51.584;5.188;2024-01-16T02:59:31;9.33;;;2.73;;
83272;SDS011;73177;51.584;5.188;2024-01-16T03:01:56;9.77;;;3.47;;
83272;SDS011;73177;51.584;5.188;2024-01-16T03:04:22;16.17;;;3.30;;
83272;SDS011;73177;51.584;5.188;2024-01-16T03:06:47;12.17;;;2.60;;
83272;SDS011;73177;51.584;5.188;2024-01-16T03:09:12;10.67;;;2.50;;
83272;SDS011;73177;51.584;5.188;2024-01-16T03:11:37;9.63;;;2.50;;
83272;SDS011;73177;51.584;5.188;2024-01-16T03:14:02;3.70;;;2.33;;
83272;SDS011;73177;51.584;5.188;2024-01-16T03:16:28;6.57;;;2.72;;
83272;SDS011;73177;51.584;5.188;2024-01-16T03:18:53;11.68;;;2.20;;
83272;SDS011;73177;51.584;5.188;2024-01-16T03:21:19;11.13;;;2.60;;
83272;SDS011;73177;51.584;5.188;2024-01-16T03:23:44;7.87;;;2.60;;
83272;SDS011;73177;51.584;5.188;2024-01-16T03:26:13;4.20;;;2.20;;
83272;SDS011;73177;51.584;5.188;2024-01-16T03:28:38;6.07;;;2.08;;
83272;SDS011;73177;51.584;5.188;2024-01-16T03:31:04;6.25;;;2.22;;
83272;SDS011;73177;51.584;5.188;2024-01-16T03:33:29;12.13;;;2.77;;
83272;SDS011;73177;51.584;5.188;2024-01-16T03:35:55;11.37;;;2.70;;
83272;SDS011;73177;51.584;5.188;2024-01-16T03:38:20;9.00;;;2.57;;
83272;SDS011;73177;51.584;5.188;2024-01-16T03:40:45;12.57;;;2.67;;
83272;SDS011;73177;51.584;5.188;2024-01-16T03:43:10;10.13;;;3.47;;
83272;SDS011;73177;51.584;5.188;2024-01-16T03:45:35;6.43;;;2.63;;
83272;SDS011;73177;51.584;5.188;2024-01-16T03:48:01;9.77;;;3.23;;
83272;SDS011;73177;51.584;5.188;2024-01-16T03:50:28;10.40;;;3.70;;
83272;SDS011;73177;51.584;5.188;2024-01-16T03:52:53;5.43;;;2.90;;
83272;SDS011;73177;51.584;5.188;2024-01-16T03:55:18;6.03;;;2.57;;
83272;SDS011;73177;51.584;5.188;2024-01-16T03:57:43;11.40;;;4.17;;
83272;SDS011;73177;51.584;5.188;2024-01-16T04:00:10;10.83;;;3.93;;
83272;SDS011;73177;51.584;5.188;2024-01-16T04:02:37;11.20;;;3.13;;
83272;SDS011;73177;51.584;5.188;2024-01-16T04:05:03;8.20;;;4.13;;
83272;SDS011;73177;51.584;5.188;2024-01-16T04:07:28;9.93;;;3.90;;
83272;SDS011;73177;51.584;5.188;2024-01-16T04:09:53;13.80;;;4.70;;
83272;SDS011;73177;51.584;5.188;2024-01-16T04:12:19;8.53;;;4.00;;
83272;SDS011;73177;51.584;5.188;2024-01-16T04:14:44;7.60;;;4.17;;
83272;SDS011;73177;51.584;5.188;2024-01-16T04:17:09;10.57;;;5.37;;
83272;SDS011;73177;51.584;5.188;2024-01-16T04:19:34;12.53;;;5.63;;
83272;SDS011;73177;51.584;5.188;2024-01-16T04:22:00;13.67;;;6.53;;
83272;SDS011;73177;51.584;5.188;2024-01-16T04:24:26;11.52;;;5.00;;
83272;SDS011;73177;51.584;5.188;2024-01-16T04:26:51;13.63;;;4.80;;
83272;SDS011;73177;51.584;5.188;2024-01-16T04:29:16;18.50;;;6.43;;
83272;SDS011;73177;51.584;5.188;2024-01-16T04:31:41;12.07;;;6.70;;
83272;SDS011;73177;51.584;5.188;2024-01-16T04:34:07;10.33;;;5.90;;
83272;SDS011;73177;51.584;5.188;2024-01-16T04:36:32;18.58;;;6.30;;
83272;SDS011;73177;51.584;5.188;2024-01-16T04:38:57;14.13;;;6.63;;
83272;SDS011;73177;51.584;5.188;2024-01-16T04:41:23;15.13;;;7.70;;
83272;SDS011;73177;51.584;5.188;2024-01-16T04:43:48;21.83;;;7.97;;
83272;SDS011;73177;51.584;5.188;2024-01-16T04:46:14;12.68;;;6.63;;
83272;SDS011;73177;51.584;5.188;2024-01-16T04:48:40;11.57;;;6.65;;
83272;SDS011;73177;51.584;5.188;2024-01-16T04:51:05;15.33;;;8.33;;
83272;SDS011;73177;51.584;5.188;2024-01-16T04:53:32;27.15;;;8.73;;
83272;SDS011;73177;51.584;5.188;2024-01-16T04:55:57;17.67;;;7.00;;
83272;SDS011;73177;51.584;5.188;2024-01-16T04:58:23;16.10;;;7.80;;
83272;SDS011;73177;51.584;5.188;2024-01-16T05:00:48;12.50;;;7.13;;
83272;SDS011;73177;51.584;5.188;2024-01-16T05:03:13;13.07;;;6.77;;
83272;SDS011;73177;51.584;5.188;2024-01-16T05:05:38;18.90;;;8.30;;
83272;SDS011;73177;51.584;5.188;2024-01-16T05:08:04;9.48;;;3.78;;
83272;SDS011;73177;51.584;5.188;2024-01-16T05:10:29;11.63;;;6.07;;
83272;SDS011;73177;51.584;5.188;2024-01-16T05:12:55;15.27;;;7.75;;
83272;SDS011;73177;51.584;5.188;2024-01-16T05:15:20;21.30;;;7.27;;
83272;SDS011;73177;51.584;5.188;2024-01-16T05:17:46;18.27;;;7.93;;
83272;SDS011;73177;51.584;5.188;2024-01-16T05:20:11;14.63;;;6.47;;
83272;SDS011;73177;51.584;5.188;2024-01-16T05:22:36;13.20;;;5.07;;
83272;SDS011;73177;51.584;5.188;2024-01-16T05:25:03;12.75;;;6.15;;
83272;SDS011;73177;51.584;5.188;2024-01-16T05:27:28;16.07;;;7.20;;
83272;SDS011;73177;51.584;5.188;2024-01-16T05:29:54;11.43;;;5.07;;
83272;SDS011;73177;51.584;5.188;2024-01-16T05:32:19;16.00;;;6.05;;
83272;SDS011;73177;51.584;5.188;2024-01-16T05:34:44;17.00;;;7.43;;
83272;SDS011;73177;51.584;5.188;2024-01-16T05:37:09;9.97;;;5.77;;
83272;SDS011;73177;51.584;5.188;2024-01-16T05:39:35;21.08;;;7.72;;
83272;SDS011;73177;51.584;5.188;2024-01-16T05:42:01;9.90;;;6.38;;
83272;SDS011;73177;51.584;5.188;2024-01-16T05:44:27;13.98;;;7.38;;
83272;SDS011;73177;51.584;5.188;2024-01-16T05:46:52;18.35;;;6.75;;
83272;SDS011;73177;51.584;5.188;2024-01-16T05:49:18;19.20;;;6.60;;
83272;SDS011;73177;51.584;5.188;2024-01-16T05:51:43;14.03;;;6.27;;
83272;SDS011;73177;51.584;5.188;2024-01-16T05:54:08;17.27;;;5.57;;
83272;SDS011;73177;51.584;5.188;2024-01-16T05:56:33;12.53;;;5.30;;
83272;SDS011;73177;51.584;5.188;2024-01-16T05:58:59;11.73;;;5.13;;
83272;SDS011;73177;51.584;5.188;2024-01-16T06:01:24;13.88;;;5.53;;
83272;SDS011;73177;51.584;5.188;2024-01-16T06:03:49;14.17;;;6.17;;
83272;SDS011;73177;51.584;5.188;2024-01-16T06:06:15;16.87;;;6.53;;
83272;SDS011;73177;51.584;5.188;2024-01-16T06:08:40;10.63;;;5.60;;
83272;SDS011;73177;51.584;5.188;2024-01-16T06:11:05;16.60;;;6.30;;
83272;SDS011;73177;51.584;5.188;2024-01-16T06:13:31;7.23;;;4.73;;
83272;SDS011;73177;51.584;5.188;2024-01-16T06:15:57;19.05;;;5.32;;
83272;SDS011;73177;51.584;5.188;2024-01-16T06:18:22;11.20;;;5.88;;
83272;SDS011;73177;51.584;5.188;2024-01-16T06:20:48;7.45;;;4.82;;
83272;SDS011;73177;51.584;5.188;2024-01-16T06:23:13;11.17;;;4.37;;
83272;SDS011;73177;51.584;5.188;2024-01-16T06:25:38;13.50;;;5.07;;
83272;SDS011;73177;51.584;5.188;2024-01-16T06:28:03;9.77;;;5.43;;
83272;SDS011;73177;51.584;5.188;2024-01-16T06:30:30;22.65;;;6.15;;
83272;SDS011;73177;51.584;5.188;2024-01-16T06:32:55;9.37;;;5.27;;
83272;SDS011;73177;51.584;5.188;2024-01-16T06:35:20;10.40;;;5.60;;
83272;SDS011;73177;51.584;5.188;2024-01-16T06:37:46;14.73;;;6.90;;
83272;SDS011;73177;51.584;5.188;2024-01-16T06:40:11;8.77;;;4.80;;
83272;SDS011;73177;51.584;5.188;2024-01-16T06:42:36;4.17;;;2.87;;
83272;SDS011;73177;51.584;5.188;2024-01-16T06:45:02;13.80;;;6.97;;
83272;SDS011;73177;51.584;5.188;2024-01-16T06:47:27;11.55;;;4.95;;
83272;SDS011;73177;51.584;5.188;2024-01-16T06:49:52;8.63;;;4.67;;
83272;SDS011;73177;51.584;5.188;2024-01-16T06:52:17;14.33;;;4.60;;
83272;SDS011;73177;51.584;5.188;2024-01-16T06:54:43;17.80;;;3.60;;
83272;SDS011;73177;51.584;5.188;2024-01-16T06:57:08;7.63;;;4.17;;
83272;SDS011;73177;51.584;5.188;2024-01-16T06:59:33;6.50;;;4.13;;
83272;SDS011;73177;51.584;5.188;2024-01-16T07:01:58;12.23;;;4.70;;
83272;SDS011;73177;51.584;5.188;2024-01-16T07:04:23;12.07;;;4.70;;
83272;SDS011;73177;51.584;5.188;2024-01-16T07:06:49;7.73;;;3.90;;
83272;SDS011;73177;51.584;5.188;2024-01-16T07:09:14;14.67;;;4.93;;
83272;SDS011;73177;51.584;5.188;2024-01-16T07:11:41;11.73;;;4.30;;
83272;SDS011;73177;51.584;5.188;2024-01-16T07:16:32;10.37;;;3.60;;
83272;SDS011;73177;51.584;5.188;2024-01-16T07:18:58;7.73;;;5.00;;
83272;SDS011;73177;51.584;5.188;2024-01-16T07:21:23;11.20;;;5.43;;
83272;SDS011;73177;51.584;5.188;2024-01-16T07:23:48;8.53;;;3.13;;
83272;SDS011;73177;51.584;5.188;2024-01-16T07:26:13;5.60;;;3.40;;
83272;SDS011;73177;51.584;5.188;2024-01-16T07:28:39;10.43;;;5.30;;
83272;SDS011;73177;51.584;5.188;2024-01-16T07:31:04;10.33;;;4.27;;
83272;SDS011;73177;51.584;5.188;2024-01-16T07:33:30;10.88;;;4.97;;
83272;SDS011;73177;51.584;5.188;2024-01-16T07:35:55;8.10;;;3.63;;
83272;SDS011;73177;51.584;5.188;2024-01-16T07:38:20;9.93;;;3.53;;
83272;SDS011;73177;51.584;5.188;2024-01-16T07:40:45;10.80;;;4.03;;
83272;SDS011;73177;51.584;5.188;2024-01-16T07:43:10;10.53;;;4.43;;
83272;SDS011;73177;51.584;5.188;2024-01-16T07:45:36;11.02;;;4.63;;
83272;SDS011;73177;51.584;5.188;2024-01-16T07:48:02;8.30;;;3.43;;
83272;SDS011;73177;51.584;5.188;2024-01-16T07:50:27;9.48;;;4.43;;
83272;SDS011;73177;51.584;5.188;2024-01-16T07:52:52;4.43;;;3.73;;
83272;SDS011;73177;51.584;5.188;2024-01-16T07:55:18;11.80;;;4.70;;
83272;SDS011;73177;51.584;5.188;2024-01-16T07:57:43;14.93;;;4.78;;
83272;SDS011;73177;51.584;5.188;2024-01-16T08:00:08;9.80;;;3.97;;
83272;SDS011;73177;51.584;5.188;2024-01-16T08:02:36;10.20;;;4.25;;
83272;SDS011;73177;51.584;5.188;2024-01-16T08:05:02;9.05;;;3.78;;
83272;SDS011;73177;51.584;5.188;2024-01-16T08:07:27;8.43;;;4.10;;
83272;SDS011;73177;51.584;5.188;2024-01-16T08:09:53;7.33;;;3.00;;
83272;SDS011;73177;51.584;5.188;2024-01-16T08:12:18;3.30;;;2.20;;
83272;SDS011;73177;51.584;5.188;2024-01-16T08:14:43;8.87;;;3.57;;
83272;SDS011;73177;51.584;5.188;2024-01-16T08:17:09;9.13;;;3.65;;
83272;SDS011;73177;51.584;5.188;2024-01-16T08:19:34;12.87;;;4.10;;
83272;SDS011;73177;51.584;5.188;2024-01-16T08:21:59;4.73;;;3.13;;
83272;SDS011;73177;51.584;5.188;2024-01-16T08:24:24;8.83;;;2.87;;
83272;SDS011;73177;51.584;5.188;2024-01-16T08:26:49;6.23;;;3.87;;
83272;SDS011;73177;51.584;5.188;2024-01-16T08:29:15;8.40;;;3.37;;
83272;SDS011;73177;51.584;5.188;2024-01-16T08:31:40;8.15;;;3.92;;
83272;SDS011;73177;51.584;5.188;2024-01-16T08:34:05;12.73;;;2.70;;
83272;SDS011;73177;51.584;5.188;2024-01-16T08:36:31;12.70;;;4.40;;
83272;SDS011;73177;51.584;5.188;2024-01-16T08:38:56;3.93;;;3.33;;
83272;SDS011;73177;51.584;5.188;2024-01-16T08:41:21;7.63;;;4.17;;
83272;SDS011;73177;51.584;5.188;2024-01-16T08:43:46;12.27;;;2.60;;
83272;SDS011;73177;51.584;5.188;2024-01-16T08:46:11;7.67;;;3.53;;
83272;SDS011;73177;51.584;5.188;2024-01-16T08:48:37;6.80;;;2.93;;
83272;SDS011;73177;51.584;5.188;2024-01-16T08:51:07;8.82;;;4.03;;
83272;SDS011;73177;51.584;5.188;2024-01-16T08:53:33;6.35;;;2.92;;
83272;SDS011;73177;51.584;5.188;2024-01-16T08:55:59;8.10;;;3.13;;
83272;SDS011;73177;51.584;5.188;2024-01-16T08:58:24;7.10;;;3.60;;
83272;SDS011;73177;51.584;5.188;2024-01-16T09:00:49;4.60;;;3.50;;
83272;SDS011;73177;51.584;5.188;2024-01-16T09:03:15;4.43;;;3.17;;
83272;SDS011;73177;51.584;5.188;2024-01-16T09:05:40;4.70;;;2.37;;
83272;SDS011;73177;51.584;5.188;2024-01-16T09:08:05;6.47;;;3.60;;
83272;SDS011;73177;51.584;5.188;2024-01-16T09:10:30;6.07;;;2.80;;
83272;SDS011;73177;51.584;5.188;2024-01-16T09:12:56;4.73;;;3.10;;
83272;SDS011;73177;51.584;5.188;2024-01-16T09:15:21;6.17;;;3.30;;
83272;SDS011;73177;51.584;5.188;2024-01-16T09:17:46;9.03;;;4.07;;
83272;SDS011;73177;51.584;5.188;2024-01-16T09:20:11;8.03;;;4.13;;
83272;SDS011;73177;51.584;5.188;2024-01-16T09:22:37;6.80;;;2.90;;
83272;SDS011;73177;51.584;5.188;2024-01-16T09:25:02;5.67;;;3.03;;
83272;SDS011;73177;51.584;5.188;2024-01-16T09:27:27;5.40;;;3.57;;
83272;SDS011;73177;51.584;5.188;2024-01-16T09:29:52;6.23;;;3.50;;
83272;SDS011;73177;51.584;5.188;2024-01-16T09:32:18;7.07;;;3.70;;
83272;SDS011;73177;51.584;5.188;2024-01-16T09:34:44;15.38;;;3.50;;
83272;SDS011;73177;51.584;5.188;2024-01-16T09:37:09;2.83;;;2.53;;
83272;SDS011;73177;51.584;5.188;2024-01-16T09:39:34;6.37;;;3.00;;
83272;SDS011;73177;51.584;5.188;2024-01-16T09:42:03;9.32;;;4.07;;
83272;SDS011;73177;51.584;5.188;2024-01-16T09:44:28;5.40;;;3.35;;
83272;SDS011;73177;51.584;5.188;2024-01-16T09:46:54;5.13;;;3.17;;
83272;SDS011;73177;51.584;5.188;2024-01-16T09:49:20;5.85;;;3.35;;
83272;SDS011;73177;51.584;5.188;2024-01-16T09:51:46;6.13;;;3.42;;
83272;SDS011;73177;51.584;5.188;2024-01-16T09:54:11;2.97;;;2.57;;
83272;SDS011;73177;51.584;5.188;2024-01-16T09:56:39;5.60;;;3.37;;
83272;SDS011;73177;51.584;5.188;2024-01-16T09:59:06;4.03;;;3.17;;
83272;SDS011;73177;51.584;5.188;2024-01-16T10:01:33;6.00;;;3.35;;
83272;SDS011;73177;51.584;5.188;2024-01-16T10:03:59;7.45;;;3.88;;
83272;SDS011;73177;51.584;5.188;2024-01-16T10:06:24;6.47;;;4.03;;
83272;SDS011;73177;51.584;5.188;2024-01-16T10:08:52;8.27;;;3.72;;
83272;SDS011;73177;51.584;5.188;2024-01-16T10:11:17;8.53;;;4.07;;
83272;SDS011;73177;51.584;5.188;2024-01-16T10:13:43;8.60;;;3.70;;
83272;SDS011;73177;51.584;5.188;2024-01-16T10:16:10;5.45;;;2.35;;
83272;SDS011;73177;51.584;5.188;2024-01-16T10:18:35;9.13;;;3.67;;
83272;SDS011;73177;51.584;5.188;2024-01-16T10:21:02;6.40;;;3.42;;
83272;SDS011;73177;51.584;5.188;2024-01-16T10:23:28;9.32;;;3.85;;
83272;SDS011;73177;51.584;5.188;2024-01-16T10:26:12;8.10;;;3.70;;
83272;SDS011;73177;51.584;5.188;2024-01-16T10:28:39;5.53;;;2.97;;
83272;SDS011;73177;51.584;5.188;2024-01-16T10:31:06;8.35;;;3.72;;
83272;SDS011;73177;51.584;5.188;2024-01-16T10:33:31;11.73;;;3.78;;
83272;SDS011;73177;51.584;5.188;2024-01-16T10:36:12;7.03;;;3.58;;
83272;SDS011;73177;51.584;5.188;2024-01-16T10:38:41;7.35;;;3.15;;
83272;SDS011;73177;51.584;5.188;2024-01-16T10:43:32;12.70;;;4.80;;
83272;SDS011;73177;51.584;5.188;2024-01-16T10:49:01;5.93;;;4.13;;
83272;SDS011;73177;51.584;5.188;2024-01-16T10:51:27;4.22;;;3.05;;
83272;SDS011;73177;51.584;5.188;2024-01-16T10:53:56;11.23;;;4.35;;
83272;SDS011;73177;51.584;5.188;2024-01-16T10:56:23;6.57;;;3.30;;
83272;SDS011;73177;51.584;5.188;2024-01-16T10:58:51;8.32;;;3.58;;
83272;SDS011;73177;51.584;5.188;2024-01-16T11:01:19;5.70;;;3.00;;
83272;SDS011;73177;51.584;5.188;2024-01-16T11:03:49;12.10;;;3.60;;
83272;SDS011;73177;51.584;5.188;2024-01-16T11:06:15;8.13;;;3.28;;
83272;SDS011;73177;51.584;5.188;2024-01-16T11:08:41;6.90;;;2.75;;
83272;SDS011;73177;51.584;5.188;2024-01-16T11:11:07;9.55;;;3.60;;
83272;SDS011;73177;51.584;5.188;2024-01-16T11:13:33;9.18;;;3.95;;
83272;SDS011;73177;51.584;5.188;2024-01-16T11:16:04;5.50;;;3.13;;
83272;SDS011;73177;51.584;5.188;2024-01-16T11:18:31;6.68;;;3.58;;
83272;SDS011;73177;51.584;5.188;2024-01-16T11:20:57;14.50;;;4.97;;
83272;SDS011;73177;51.584;5.188;2024-01-16T11:23:23;7.57;;;4.55;;
83272;SDS011;73177;51.584;5.188;2024-01-16T11:25:48;5.23;;;3.67;;
83272;SDS011;73177;51.584;5.188;2024-01-16T11:28:14;7.13;;;3.63;;
83272;SDS011;73177;51.584;5.188;2024-01-16T11:30:41;4.88;;;2.95;;
83272;SDS011;73177;51.584;5.188;2024-01-16T11:35:52;8.07;;;2.88;;
83272;SDS011;73177;51.584;5.188;2024-01-16T11:38:18;6.07;;;3.57;;
83272;SDS011;73177;51.584;5.188;2024-01-16T11:40:45;7.75;;;3.33;;
83272;SDS011;73177;51.584;5.188;2024-01-16T11:45:55;6.50;;;2.83;;
83272;SDS011;73177;51.584;5.188;2024-01-16T11:48:20;4.73;;;3.30;;
83272;SDS011;73177;51.584;5.188;2024-01-16T11:50:46;19.02;;;4.20;;
83272;SDS011;73177;51.584;5.188;2024-01-16T11:53:30;7.13;;;3.75;;
83272;SDS011;73177;51.584;5.188;2024-01-16T11:56:21;5.90;;;3.35;;
83272;SDS011;73177;51.584;5.188;2024-01-16T11:58:53;10.43;;;3.40;;
83272;SDS011;73177;51.584;5.188;2024-01-16T12:01:22;5.57;;;2.88;;
83272;SDS011;73177;51.584;5.188;2024-01-16T12:06:29;8.00;;;3.85;;
83272;SDS011;73177;51.584;5.188;2024-01-16T12:09:09;5.23;;;3.63;;
83272;SDS011;73177;51.584;5.188;2024-01-16T12:11:35;6.32;;;3.22;;
83272;SDS011;73177;51.584;5.188;2024-01-16T12:14:01;6.32;;;3.30;;
83272;SDS011;73177;51.584;5.188;2024-01-16T12:16:26;6.47;;;3.35;;
83272;SDS011;73177;51.584;5.188;2024-01-16T12:19:03;8.88;;;3.25;;
83272;SDS011;73177;51.584;5.188;2024-01-16T12:21:28;10.40;;;3.17;;
83272;SDS011;73177;51.584;5.188;2024-01-16T12:23:54;9.93;;;2.70;;
83272;SDS011;73177;51.584;5.188;2024-01-16T12:26:19;3.20;;;2.23;;
83272;SDS011;73177;51.584;5.188;2024-01-16T12:28:49;7.18;;;3.00;;
83272;SDS011;73177;51.584;5.188;2024-01-16T12:31:17;3.25;;;2.05;;
83272;SDS011;73177;51.584;5.188;2024-01-16T12:33:42;6.32;;;3.13;;
83272;SDS011;73177;51.584;5.188;2024-01-16T12:36:08;4.33;;;2.93;;
83272;SDS011;73177;51.584;5.188;2024-01-16T12:38:35;4.13;;;2.00;;
83272;SDS011;73177;51.584;5.188;2024-01-16T12:41:01;6.32;;;3.00;;
83272;SDS011;73177;51.584;5.188;2024-01-16T12:43:27;7.40;;;3.30;;
83272;SDS011;73177;51.584;5.188;2024-01-16T12:45:55;8.23;;;3.07;;
83272;SDS011;73177;51.584;5.188;2024-01-16T12:48:27;8.05;;;3.17;;
83272;SDS011;73177;51.584;5.188;2024-01-16T12:51:01;5.72;;;2.35;;
83272;SDS011;73177;51.584;5.188;2024-01-16T12:53:27;9.57;;;3.17;;
83272;SDS011;73177;51.584;5.188;2024-01-16T12:55:59;6.65;;;3.47;;
83272;SDS011;73177;51.584;5.188;2024-01-16T12:58:24;9.15;;;3.20;;
83272;SDS011;73177;51.584;5.188;2024-01-16T13:00:53;7.32;;;3.28;;
83272;SDS011;73177;51.584;5.188;2024-01-16T13:03:19;6.88;;;3.03;;
83272;SDS011;73177;51.584;5.188;2024-01-16T13:05:44;4.65;;;2.85;;
83272;SDS011;73177;51.584;5.188;2024-01-16T13:08:16;5.43;;;3.03;;
83272;SDS011;73177;51.584;5.188;2024-01-16T13:10:42;5.07;;;2.58;;
83272;SDS011;73177;51.584;5.188;2024-01-16T13:13:17;5.33;;;2.93;;
83272;SDS011;73177;51.584;5.188;2024-01-16T13:15:43;4.32;;;2.75;;
83272;SDS011;73177;51.584;5.188;2024-01-16T13:18:21;4.75;;;3.00;;
83272;SDS011;73177;51.584;5.188;2024-01-16T13:20:47;5.82;;;2.45;;
83272;SDS011;73177;51.584;5.188;2024-01-16T13:23:13;7.20;;;3.20;;
83272;SDS011;73177;51.584;5.188;2024-01-16T13:25:39;4.68;;;2.95;;
83272;SDS011;73177;51.584;5.188;2024-01-16T13:28:05;5.13;;;2.97;;
83272;SDS011;73177;51.584;5.188;2024-01-16T13:30:32;13.88;;;3.13;;
83272;SDS011;73177;51.584;5.188;2024-01-16T13:32:57;2.27;;;1.80;;
83272;SDS011;73177;51.584;5.188;2024-01-16T13:35:23;6.33;;;3.23;;
83272;SDS011;73177;51.584;5.188;2024-01-16T13:37:48;4.30;;;2.63;;
83272;SDS011;73177;51.584;5.188;2024-01-16T13:40:13;9.13;;;3.07;;
83272;SDS011;73177;51.584;5.188;2024-01-16T13:42:43;6.72;;;3.20;;
83272;SDS011;73177;51.584;5.188;2024-01-16T13:45:08;8.07;;;3.03;;
83272;SDS011;73177;51.584;5.188;2024-01-16T13:47:34;9.93;;;3.83;;
83272;SDS011;73177;51.584;5.188;2024-01-16T13:50:04;6.72;;;2.35;;
83272;SDS011;73177;51.584;5.188;2024-01-16T13:52:29;6.85;;;3.58;;
83272;SDS011;73177;51.584;5.188;2024-01-16T13:54:54;4.83;;;3.10;;
83272;SDS011;73177;51.584;5.188;2024-01-16T13:57:20;6.80;;;2.92;;
83272;SDS011;73177;51.584;5.188;2024-01-16T13:59:45;5.73;;;3.13;;
83272;SDS011;73177;51.584;5.188;2024-01-16T14:02:10;5.13;;;2.70;;
83272;SDS011;73177;51.584;5.188;2024-01-16T14:04:35;5.25;;;2.72;;
83272;SDS011;73177;51.584;5.188;2024-01-16T14:07:01;8.87;;;3.40;;
83272;SDS011;73177;51.584;5.188;2024-01-16T14:09:26;8.90;;;2.75;;
83272;SDS011;73177;51.584;5.188;2024-01-16T14:11:52;6.13;;;3.58;;
83272;SDS011;73177;51.584;5.188;2024-01-16T14:14:17;5.93;;;2.87;;
83272;SDS011;73177;51.584;5.188;2024-01-16T14:16:42;5.23;;;2.80;;
83272;SDS011;73177;51.584;5.188;2024-01-16T14:19:08;6.95;;;3.45;;
83272;SDS011;73177;51.584;5.188;2024-01-16T14:21:33;6.00;;;3.17;;
83272;SDS011;73177;51.584;5.188;2024-01-16T14:23:58;6.33;;;3.00;;
83272;SDS011;73177;51.584;5.188;2024-01-16T14:26:23;7.33;;;2.77;;
83272;SDS011;73177;51.584;5.188;2024-01-16T14:28:49;4.00;;;2.70;;
83272;SDS011;73177;51.584;5.188;2024-01-16T14:31:15;7.47;;;3.15;;
83272;SDS011;73177;51.584;5.188;2024-01-16T14:33:40;7.43;;;3.07;;
83272;SDS011;73177;51.584;5.188;2024-01-16T14:36:05;5.80;;;3.20;;
83272;SDS011;73177;51.584;5.188;2024-01-16T14:38:31;5.70;;;3.15;;
83272;SDS011;73177;51.584;5.188;2024-01-16T14:40:56;5.10;;;3.43;;
83272;SDS011;73177;51.584;5.188;2024-01-16T14:43:22;8.77;;;4.00;;
83272;SDS011;73177;51.584;5.188;2024-01-16T14:45:47;6.90;;;3.20;;
83272;SDS011;73177;51.584;5.188;2024-01-16T14:48:14;12.40;;;3.57;;
83272;SDS011;73177;51.584;5.188;2024-01-16T14:50:39;5.57;;;2.97;;
83272;SDS011;73177;51.584;5.188;2024-01-16T14:53:04;6.10;;;3.63;;
83272;SDS011;73177;51.584;5.188;2024-01-16T14:55:30;7.45;;;4.05;;
83272;SDS011;73177;51.584;5.188;2024-01-16T14:57:56;10.90;;;3.80;;